createdAt,value
2022-10-05T00:04:52.141Z,13.51
2022-10-05T00:11:34.834Z,15.41
2022-10-05T00:18:17.410Z,13.36
2022-10-05T00:25:00.091Z,14.26
2022-10-05T00:31:42.715Z,14.14
2022-10-05T00:38:26.040Z,12.10
2022-10-05T00:45:24.095Z,13.73
2022-10-05T00:51:46.917Z,14.19
2022-10-05T01:12:39.659Z,14.54
2022-10-05T01:19:34.549Z,12.10
2022-10-05T01:26:18.752Z,13.92
2022-10-05T01:33:17.093Z,14.48
2022-10-05T01:40:14.869Z,12.16
2022-10-05T02:01:09.832Z,12.10
2022-10-05T02:07:53.850Z,15.06
2022-10-05T02:14:36.807Z,14.01
2022-10-05T02:21:25.998Z,14.52
2022-10-05T02:28:09.042Z,14.39
2022-10-05T02:35:07.160Z,12.11
2022-10-05T02:41:50.278Z,13.87
2022-10-05T02:48:39.260Z,14.21
2022-10-05T02:55:22.008Z,12.04
2022-10-05T03:02:04.978Z,13.64
2022-10-05T03:08:53.683Z,14.10
2022-10-05T03:16:12.420Z,13.14
2022-10-05T03:23:04.279Z,15.07
2022-10-05T03:29:53.886Z,12.70
2022-10-05T03:44:27.715Z,14.14
2022-10-05T03:51:05.855Z,12.13
2022-10-05T03:57:34.547Z,13.94
2022-10-05T04:04:17.394Z,14.46
2022-10-05T04:11:00.277Z,12.17
2022-10-05T04:17:46.237Z,13.58
2022-10-05T04:24:40.842Z,13.88
2022-10-05T04:31:24.629Z,11.75
2022-10-05T04:38:16.780Z,13.39
2022-10-05T04:45:26.994Z,13.86
2022-10-05T04:52:18.545Z,11.56
2022-10-05T04:58:51.060Z,13.23
2022-10-05T05:05:27.312Z,13.84
2022-10-05T05:11:30.521Z,11.69
2022-10-05T05:18:06.565Z,12.61
2022-10-05T05:31:05.412Z,12.70
2022-10-05T05:36:50.556Z,13.68
2022-10-05T05:43:20.124Z,14.83
2022-10-05T05:50:06.979Z,12.49
2022-10-05T05:56:34.232Z,14.07
2022-10-05T06:02:07.258Z,14.76
2022-10-05T06:07:31.956Z,12.93
2022-10-05T06:13:57.372Z,13.48
2022-10-05T06:20:39.444Z,15.73
2022-10-05T06:27:20.394Z,13.47
2022-10-05T06:34:05.215Z,14.22
2022-10-05T06:40:41.525Z,16.62
2022-10-05T06:47:28.924Z,14.18
2022-10-05T06:54:17.676Z,15.57
2022-10-05T07:00:20.394Z,16.18
2022-10-05T07:13:56.058Z,15.90
2022-10-05T07:20:19.304Z,16.71
2022-10-05T07:27:14.598Z,14.76
2022-10-05T07:34:02.087Z,16.44
2022-10-05T07:40:14.875Z,17.12
2022-10-05T07:46:40.234Z,15.25
2022-10-05T07:52:10.687Z,15.46
2022-10-05T07:58:12.573Z,17.32
2022-10-05T08:04:16.122Z,15.80
2022-10-05T08:10:27.663Z,15.26
2022-10-05T08:15:54.081Z,18.41
2022-10-05T08:21:21.054Z,17.60
2022-10-05T08:27:08.605Z,16.56
2022-10-05T08:32:37.957Z,15.99
2022-10-05T08:38:24.670Z,15.75
2022-10-05T08:43:50.546Z,16.18
2022-10-05T08:49:43.024Z,18.13
2022-10-05T08:55:11.066Z,17.15
2022-10-05T09:00:49.075Z,16.66
2022-10-05T09:06:17.219Z,16.48
2022-10-05T09:11:54.717Z,16.37
2022-10-05T09:17:22.822Z,16.23
2022-10-05T09:23:20.195Z,16.17
2022-10-05T09:29:20.858Z,16.48
2022-10-05T09:35:25.085Z,17.03
2022-10-05T09:41:33.863Z,17.44
2022-10-05T09:59:53.034Z,18.45
2022-10-05T10:05:49.144Z,18.78
2022-10-05T10:12:01.772Z,19.05
2022-10-05T10:17:43.107Z,19.12
2022-10-05T10:23:54.692Z,19.11
2022-10-05T10:55:53.104Z,19.16
2022-10-05T11:02:09.087Z,19.24
2022-10-05T11:07:59.537Z,19.34
2022-10-05T11:13:59.062Z,19.30
2022-10-05T11:19:59.523Z,19.35
2022-10-05T11:25:56.124Z,19.32
2022-10-05T11:32:29.293Z,19.31
2022-10-05T11:39:19.500Z,19.32
2022-10-05T11:45:53.131Z,19.39
2022-10-05T11:51:50.581Z,19.43
2022-10-05T11:57:35.058Z,19.50
2022-10-05T12:03:33.199Z,19.59
2022-10-05T12:09:42.973Z,19.60
2022-10-05T12:15:34.741Z,19.59
2022-10-05T12:21:52.947Z,19.61
2022-10-05T12:27:43.231Z,19.54
2022-10-05T12:33:35.008Z,19.47
2022-10-05T12:57:06.316Z,18.47
2022-10-05T13:03:00.378Z,18.32
2022-10-05T13:08:43.826Z,18.28
2022-10-05T13:14:12.317Z,18.22
2022-10-05T13:20:09.756Z,18.14
2022-10-05T13:25:56.174Z,18.04
2022-10-05T13:31:43.633Z,17.96
2022-10-05T13:38:07.872Z,17.88
2022-10-05T13:44:18.308Z,17.85
2022-10-05T13:50:23.210Z,17.90
2022-10-05T13:56:08.033Z,18.02
2022-10-05T14:02:01.950Z,18.27
2022-10-05T14:07:57.034Z,18.51
2022-10-05T14:13:48.742Z,18.68
2022-10-05T14:19:22.385Z,18.77
2022-10-05T14:25:34.475Z,18.86
2022-10-05T14:31:27.730Z,18.88
2022-10-05T14:36:57.060Z,18.78
2022-10-05T14:43:23.579Z,18.63
2022-10-05T14:49:08.832Z,18.41
2022-10-05T14:55:01.310Z,18.27
2022-10-05T15:00:27.321Z,18.13
2022-10-05T15:05:56.085Z,17.99
2022-10-05T15:11:27.880Z,17.83
2022-10-05T15:17:43.280Z,17.63
2022-10-05T15:23:52.867Z,17.41
2022-10-05T15:30:14.206Z,17.20
2022-10-05T15:36:04.885Z,17.02
2022-10-05T15:42:29.829Z,16.86
2022-10-05T15:49:00.747Z,16.70
2022-10-05T15:55:46.546Z,16.55
2022-10-05T16:02:01.362Z,16.39
2022-10-05T16:14:56.196Z,18.14
2022-10-05T16:41:23.987Z,16.70
2022-10-05T16:47:16.204Z,16.49
2022-10-05T16:52:55.179Z,18.41
2022-10-05T16:59:31.977Z,21.57
2022-10-05T17:06:15.384Z,20.96
2022-10-05T17:12:22.317Z,19.44
2022-10-05T17:18:15.320Z,18.36
2022-10-05T17:24:00.925Z,17.42
2022-10-05T17:29:43.166Z,16.71
2022-10-05T17:35:26.135Z,16.16
2022-10-05T17:41:14.272Z,17.36
2022-10-05T17:47:02.120Z,18.93
2022-10-05T17:52:49.165Z,17.28
2022-10-05T17:58:32.202Z,16.34
2022-10-05T18:04:52.799Z,15.78
2022-10-05T18:11:07.323Z,17.60
2022-10-05T18:16:57.216Z,18.77
2022-10-05T18:22:46.210Z,17.16
2022-10-05T18:34:51.631Z,15.75
2022-10-05T18:47:38.472Z,18.40
2022-10-05T18:54:11.824Z,16.68
2022-10-05T19:00:34.064Z,15.83
2022-10-05T19:07:17.587Z,17.42
2022-10-05T19:14:06.812Z,18.07
2022-10-05T19:20:26.147Z,16.39
2022-10-05T19:47:01.334Z,16.21
2022-10-05T19:53:09.381Z,15.31
2022-10-05T19:59:39.180Z,16.59
2022-10-05T20:05:43.039Z,17.77
2022-10-05T20:11:30.089Z,16.01
2022-10-05T20:17:59.729Z,16.75
2022-10-05T20:23:42.439Z,17.71
2022-10-05T20:29:48.806Z,16.03
2022-10-05T20:36:32.459Z,16.90
2022-10-05T20:43:32.356Z,17.50
2022-10-05T20:50:15.902Z,17.69
2022-10-05T20:56:59.561Z,17.45
2022-10-05T21:03:42.500Z,15.65
2022-10-05T21:10:26.205Z,17.20
2022-10-05T21:17:14.779Z,17.76
2022-10-05T21:23:58.569Z,15.66
2022-10-05T21:30:41.682Z,16.98
2022-10-05T21:37:27.259Z,17.42
2022-10-05T21:44:10.370Z,15.40
2022-10-05T21:50:54.385Z,16.61
2022-10-05T21:57:37.284Z,17.30
2022-10-05T22:04:22.983Z,15.25
2022-10-05T22:11:10.556Z,16.75
2022-10-05T22:17:55.445Z,17.27
2022-10-05T22:24:02.918Z,15.17
